createdAt,value
2017-11-13T00:00:01.429Z,48.00
2017-11-13T00:03:24.978Z,47.90
2017-11-13T00:06:48.499Z,48.40
2017-11-13T00:10:12.016Z,48.10
2017-11-13T00:13:35.548Z,48.10
2017-11-13T00:16:59.789Z,48.50
2017-11-13T00:20:23.270Z,47.90
2017-11-13T00:23:46.855Z,48.30
2017-11-13T00:27:10.312Z,48.20
2017-11-13T00:30:33.927Z,48.20
2017-11-13T00:33:57.516Z,48.00
2017-11-13T00:37:21.784Z,48.40
2017-11-13T00:40:45.283Z,48.40
2017-11-13T00:44:09.539Z,48.30
2017-11-13T00:47:33.056Z,48.20
2017-11-13T00:50:56.624Z,47.70
2017-11-13T00:54:20.122Z,48.10
2017-11-13T00:57:43.607Z,48.10
2017-11-13T01:01:07.221Z,48.20
2017-11-13T01:04:32.217Z,48.10
2017-11-13T01:07:55.830Z,48.10
2017-11-13T01:11:19.425Z,48.20
2017-11-13T01:14:42.967Z,48.40
2017-11-13T01:18:07.232Z,48.50
2017-11-13T01:21:30.716Z,48.50
2017-11-13T01:24:55.059Z,48.20
2017-11-13T01:28:18.718Z,48.10
2017-11-13T01:31:42.236Z,48.30
2017-11-13T01:35:05.739Z,48.30
2017-11-13T01:38:29.971Z,48.30
2017-11-13T01:41:53.470Z,48.30
2017-11-13T01:45:17.036Z,48.50
2017-11-13T01:48:40.536Z,48.60
2017-11-13T01:52:04.014Z,48.20
2017-11-13T01:55:28.258Z,48.80
2017-11-13T01:58:51.952Z,48.70
2017-11-13T02:02:16.375Z,48.40
2017-11-13T02:05:40.616Z,48.60
2017-11-13T02:09:04.305Z,48.60
2017-11-13T02:12:27.916Z,48.40
2017-11-13T02:15:51.810Z,48.60
2017-11-13T02:19:15.497Z,48.60
2017-11-13T02:22:38.964Z,48.40
2017-11-13T02:26:02.466Z,48.60
2017-11-13T02:29:26.019Z,48.60
2017-11-13T02:32:50.279Z,48.60
2017-11-13T02:36:14.531Z,48.30
2017-11-13T02:39:38.068Z,48.30
2017-11-13T02:43:01.722Z,48.80
2017-11-13T02:46:26.152Z,48.20
2017-11-13T02:49:49.692Z,48.10
2017-11-13T02:53:13.170Z,48.70
2017-11-13T02:56:36.804Z,48.40
2017-11-13T03:00:00.303Z,48.70
2017-11-13T03:03:23.816Z,48.40
2017-11-13T03:06:47.324Z,48.70
2017-11-13T03:10:10.828Z,48.30
2017-11-13T03:13:35.079Z,48.70
2017-11-13T03:16:58.557Z,48.60
2017-11-13T03:20:22.048Z,48.40
2017-11-13T03:23:45.612Z,47.60
2017-11-13T03:27:09.095Z,48.40
2017-11-13T03:30:32.593Z,48.60
2017-11-13T03:33:56.855Z,48.50
2017-11-13T03:37:21.092Z,48.60
2017-11-13T03:40:44.678Z,48.50
2017-11-13T03:44:08.196Z,47.90
2017-11-13T03:47:31.724Z,48.30
2017-11-13T03:50:55.271Z,49.20
2017-11-13T03:54:18.776Z,47.80
2017-11-13T03:57:42.506Z,48.00
2017-11-13T04:01:06.065Z,47.60
2017-11-13T04:04:29.638Z,47.40
2017-11-13T04:07:53.185Z,47.30
2017-11-13T04:11:16.669Z,46.90
2017-11-13T04:14:40.190Z,46.90
2017-11-13T04:18:03.869Z,46.30
2017-11-13T04:21:28.077Z,45.80
2017-11-13T04:24:51.570Z,45.80
2017-11-13T04:28:15.064Z,46.00
2017-11-13T04:31:40.140Z,45.60
2017-11-13T04:35:03.628Z,46.10
2017-11-13T04:38:27.092Z,46.30
2017-11-13T04:41:50.577Z,45.90
2017-11-13T04:45:14.047Z,45.70
2017-11-13T04:48:37.572Z,46.00
2017-11-13T04:52:01.087Z,45.90
2017-11-13T04:55:24.552Z,46.40
2017-11-13T04:58:48.087Z,46.10
2017-11-13T05:02:11.604Z,46.00
2017-11-13T05:05:35.083Z,45.50
2017-11-13T05:08:58.545Z,45.00
2017-11-13T05:12:22.225Z,43.90
2017-11-13T05:15:45.709Z,42.80
2017-11-13T05:19:09.216Z,41.60
2017-11-13T05:22:32.695Z,40.70
2017-11-13T05:25:56.206Z,39.70
2017-11-13T05:29:19.686Z,39.00
2017-11-13T05:32:44.345Z,38.10
2017-11-13T05:36:08.645Z,37.80
2017-11-13T05:39:32.107Z,37.80
2017-11-13T05:42:55.580Z,37.20
2017-11-13T05:46:19.057Z,36.90
2017-11-13T05:49:42.546Z,36.80
2017-11-13T05:53:06.021Z,36.60
2017-11-13T05:56:29.524Z,36.70
2017-11-13T05:59:53.771Z,36.80
2017-11-13T06:03:17.287Z,36.10
2017-11-13T06:06:40.900Z,36.00
2017-11-13T06:10:04.369Z,36.00
2017-11-13T06:13:27.861Z,36.00
2017-11-13T06:16:51.493Z,35.90
2017-11-13T06:20:15.747Z,35.80
2017-11-13T06:23:39.268Z,35.80
2017-11-13T06:27:03.521Z,35.40
2017-11-13T06:30:26.992Z,35.40
2017-11-13T06:33:50.488Z,35.40
2017-11-13T06:37:13.999Z,35.60
2017-11-13T06:40:37.488Z,35.80
2017-11-13T06:44:00.976Z,35.40
2017-11-13T06:47:24.472Z,35.60
2017-11-13T06:50:48.787Z,36.50
2017-11-13T06:54:13.229Z,35.90
2017-11-13T06:57:36.684Z,36.20
2017-11-13T07:01:00.279Z,36.30
2017-11-13T07:04:23.749Z,36.60
2017-11-13T07:07:47.294Z,36.90
2017-11-13T07:11:10.775Z,37.10
2017-11-13T07:14:34.591Z,37.40
2017-11-13T07:17:58.120Z,37.90
2017-11-13T07:21:21.589Z,38.10
2017-11-13T07:24:45.080Z,38.40
2017-11-13T07:28:08.673Z,38.20
2017-11-13T07:31:32.478Z,37.90
2017-11-13T07:34:56.729Z,37.20
2017-11-13T07:38:20.250Z,37.00
2017-11-13T07:41:44.504Z,36.10
2017-11-13T07:45:08.084Z,36.00
2017-11-13T07:48:33.081Z,35.90
2017-11-13T07:51:56.623Z,35.90
2017-11-13T07:55:20.122Z,35.50
2017-11-13T07:58:44.433Z,35.40
2017-11-13T08:02:07.920Z,35.40
2017-11-13T08:05:32.148Z,35.30
2017-11-13T08:08:55.650Z,35.30
2017-11-13T08:12:19.205Z,34.90
2017-11-13T08:15:42.722Z,34.90
2017-11-13T08:19:06.985Z,35.00
2017-11-13T08:22:30.494Z,34.90
2017-11-13T08:25:54.741Z,35.10
2017-11-13T08:29:18.219Z,35.00
2017-11-13T08:32:42.548Z,34.90
2017-11-13T08:36:06.784Z,34.40
2017-11-13T08:39:30.311Z,34.70
2017-11-13T08:42:54.536Z,34.60
2017-11-13T08:46:18.056Z,34.60
2017-11-13T08:49:42.091Z,34.40
2017-11-13T08:53:05.570Z,34.60
2017-11-13T08:56:29.060Z,34.40
2017-11-13T08:59:52.515Z,34.30
2017-11-13T09:03:16.131Z,34.40
2017-11-13T09:06:40.377Z,34.80
2017-11-13T09:10:04.107Z,34.20
2017-11-13T09:13:27.612Z,34.40
2017-11-13T09:16:51.129Z,34.20
2017-11-13T09:20:14.626Z,34.20
2017-11-13T09:23:38.879Z,34.30
2017-11-13T09:27:02.372Z,34.90
2017-11-13T09:30:26.666Z,34.40
2017-11-13T09:33:50.209Z,34.40
2017-11-13T09:37:13.748Z,34.40
2017-11-13T09:40:38.120Z,34.50
2017-11-13T09:44:02.370Z,34.40
2017-11-13T09:47:25.999Z,34.30
2017-11-13T09:50:49.781Z,34.40
2017-11-13T09:54:13.322Z,34.40
2017-11-13T09:57:36.843Z,34.40
2017-11-13T10:01:00.535Z,34.30
2017-11-13T10:04:24.069Z,34.30
2017-11-13T10:07:48.345Z,34.40
2017-11-13T10:11:11.846Z,34.30
2017-11-13T10:14:35.353Z,34.10
2017-11-13T10:17:58.831Z,34.40
2017-11-13T10:21:22.327Z,34.40
2017-11-13T10:24:45.804Z,34.00
2017-11-13T10:28:09.276Z,34.10
2017-11-13T10:31:32.755Z,34.30
2017-11-13T10:34:57.139Z,34.10
2017-11-13T10:38:22.143Z,34.10
2017-11-13T10:41:45.706Z,34.10
2017-11-13T10:45:09.223Z,33.90
2017-11-13T10:48:32.919Z,33.90
2017-11-13T10:51:56.725Z,34.30
2017-11-13T10:55:20.655Z,34.20
2017-11-13T10:58:44.157Z,34.00
2017-11-13T11:02:07.617Z,34.00
2017-11-13T11:05:31.148Z,34.30
2017-11-13T11:08:54.637Z,33.90
2017-11-13T11:12:20.447Z,34.20
2017-11-13T11:15:58.685Z,34.20
2017-11-13T11:19:23.920Z,34.10
2017-11-13T11:22:54.146Z,34.10
2017-11-13T11:26:23.349Z,34.30
2017-11-13T11:30:01.733Z,34.10
2017-11-13T11:37:27.124Z,34.20
2017-11-13T11:40:51.344Z,34.10
2017-11-13T11:44:26.254Z,34.40
2017-11-13T11:51:57.191Z,33.80
2017-11-13T11:55:23.235Z,34.20
2017-11-13T11:58:47.723Z,33.90
2017-11-13T12:02:11.214Z,33.90
2017-11-13T12:05:34.845Z,34.20
2017-11-13T12:08:58.334Z,33.70
2017-11-13T12:12:22.411Z,33.50
2017-11-13T12:15:46.005Z,33.60
2017-11-13T12:19:10.268Z,34.40
2017-11-13T12:22:33.760Z,33.70
2017-11-13T12:25:57.334Z,33.90
2017-11-13T12:29:20.865Z,33.60
2017-11-13T12:32:44.641Z,33.80
2017-11-13T12:36:08.052Z,34.00
2017-11-13T12:39:31.666Z,33.70
2017-11-13T12:42:55.146Z,33.40
2017-11-13T12:46:18.640Z,33.80
2017-11-13T12:49:42.296Z,33.60
2017-11-13T12:53:05.785Z,33.60
2017-11-13T12:56:29.332Z,33.80
2017-11-13T12:59:52.825Z,33.60
2017-11-13T13:03:16.310Z,33.70
2017-11-13T13:06:39.818Z,33.90
2017-11-13T13:10:04.040Z,33.80
2017-11-13T13:13:27.763Z,33.80
2017-11-13T13:16:51.265Z,33.90
2017-11-13T13:20:14.774Z,33.70
2017-11-13T13:23:38.250Z,34.00
2017-11-13T13:27:01.712Z,33.90
2017-11-13T13:30:25.245Z,33.80
2017-11-13T13:33:49.819Z,34.10
2017-11-13T13:37:13.379Z,34.10
2017-11-13T13:40:36.882Z,33.90
2017-11-13T13:44:01.313Z,34.00
2017-11-13T13:47:25.576Z,34.00
2017-11-13T13:50:49.852Z,33.80
2017-11-13T13:54:13.397Z,33.80
2017-11-13T13:57:37.640Z,33.80
2017-11-13T14:01:01.965Z,34.00
2017-11-13T14:04:25.570Z,34.00
2017-11-13T14:07:49.080Z,34.10
2017-11-13T14:11:13.383Z,34.00
2017-11-13T14:14:37.664Z,34.10
2017-11-13T14:18:01.966Z,34.00
2017-11-13T14:21:25.515Z,34.00
2017-11-13T14:24:49.075Z,33.90
2017-11-13T14:28:12.622Z,34.10
2017-11-13T14:31:36.286Z,34.20
2017-11-13T14:34:59.910Z,34.10
2017-11-13T14:38:23.415Z,34.20
2017-11-13T14:41:46.916Z,34.30
2017-11-13T14:45:10.413Z,34.10
2017-11-13T14:48:33.983Z,34.10
2017-11-13T14:51:57.516Z,34.30
2017-11-13T14:55:20.991Z,34.10
2017-11-13T14:58:44.688Z,34.00
2017-11-13T15:02:08.186Z,34.20
2017-11-13T15:05:31.733Z,34.20
2017-11-13T15:08:55.256Z,34.20
2017-11-13T15:12:18.840Z,34.50
2017-11-13T15:15:42.438Z,34.60
2017-11-13T15:19:06.101Z,34.50
2017-11-13T15:22:29.628Z,34.60
2017-11-13T15:25:53.109Z,34.80
2017-11-13T15:29:17.364Z,35.10
2017-11-13T15:32:41.161Z,35.10
2017-11-13T15:36:04.703Z,35.20
2017-11-13T15:39:28.267Z,35.40
2017-11-13T15:42:51.772Z,35.60
2017-11-13T15:46:15.256Z,35.80
2017-11-13T15:49:38.830Z,36.10
2017-11-13T15:53:02.329Z,36.40
2017-11-13T15:56:26.669Z,37.10
2017-11-13T15:59:50.759Z,37.10
2017-11-13T16:03:14.243Z,37.40
2017-11-13T16:06:38.577Z,38.00
2017-11-13T16:10:02.916Z,38.40
2017-11-13T16:13:26.435Z,38.40
2017-11-13T16:16:50.887Z,39.40
2017-11-13T16:20:14.339Z,39.30
2017-11-13T16:23:37.871Z,39.90
2017-11-13T16:27:01.538Z,40.40
2017-11-13T16:30:25.054Z,40.70
2017-11-13T16:33:48.657Z,40.90
2017-11-13T16:37:12.460Z,41.10
2017-11-13T16:40:35.973Z,41.50
2017-11-13T16:43:59.474Z,41.90
2017-11-13T16:47:22.946Z,42.00
2017-11-13T16:50:46.479Z,42.30
2017-11-13T16:54:10.596Z,42.60
2017-11-13T16:57:34.095Z,42.20
2017-11-13T17:00:57.604Z,42.20
2017-11-13T17:04:21.871Z,42.40
2017-11-13T17:07:45.378Z,42.40
2017-11-13T17:11:10.628Z,41.70
2017-11-13T17:14:34.130Z,41.70
2017-11-13T17:17:57.781Z,42.10
2017-11-13T17:21:21.424Z,42.10
2017-11-13T17:24:44.956Z,41.80
2017-11-13T17:28:09.966Z,41.00
2017-11-13T17:31:34.238Z,40.90
2017-11-13T17:34:57.870Z,40.90
2017-11-13T17:38:21.374Z,40.80
2017-11-13T17:41:44.872Z,40.90
2017-11-13T17:45:08.351Z,40.80
2017-11-13T17:48:33.380Z,41.20
2017-11-13T17:51:57.807Z,41.20
2017-11-13T17:55:21.313Z,41.20
2017-11-13T17:58:46.598Z,41.70
2017-11-13T18:02:10.235Z,41.70
2017-11-13T18:05:34.501Z,41.60
2017-11-13T18:08:57.977Z,41.50
2017-11-13T18:12:22.240Z,40.70
2017-11-13T18:15:46.646Z,41.00
2017-11-13T18:19:10.142Z,41.40
2017-11-13T18:22:34.493Z,41.10
2017-11-13T18:25:58.003Z,41.10
2017-11-13T18:29:22.264Z,40.90
2017-11-13T18:32:45.757Z,40.80
2017-11-13T18:36:10.915Z,40.60
2017-11-13T18:39:34.417Z,40.60
2017-11-13T18:42:57.924Z,40.40
2017-11-13T18:46:22.197Z,40.30
2017-11-13T18:49:46.111Z,40.30
2017-11-13T18:53:10.656Z,41.10
2017-11-13T18:56:34.145Z,40.50
2017-11-13T18:59:57.642Z,40.20
2017-11-13T19:03:21.868Z,40.50
2017-11-13T19:06:45.406Z,40.50
2017-11-13T19:10:09.689Z,40.70
2017-11-13T19:13:33.265Z,40.70
2017-11-13T19:16:57.581Z,41.70
2017-11-13T19:20:21.873Z,41.30
2017-11-13T19:23:45.566Z,41.30
2017-11-13T19:27:09.078Z,41.60
2017-11-13T19:30:33.113Z,41.30
2017-11-13T19:33:56.643Z,41.10
2017-11-13T19:37:20.164Z,40.90
2017-11-13T19:40:43.701Z,40.90
2017-11-13T19:44:07.999Z,40.40
2017-11-13T19:47:32.989Z,40.30
2017-11-13T19:50:58.078Z,40.50
2017-11-13T19:54:21.663Z,40.50
2017-11-13T19:57:45.181Z,40.40
2017-11-13T20:01:10.399Z,39.90
2017-11-13T20:04:33.906Z,39.80
2017-11-13T20:07:57.462Z,39.80
2017-11-13T20:11:21.634Z,39.50
2017-11-13T20:14:45.155Z,39.40
2017-11-13T20:18:08.781Z,39.40
2017-11-13T20:21:33.039Z,39.60
2017-11-13T20:24:57.330Z,38.90
2017-11-13T20:28:21.600Z,39.30
2017-11-13T20:31:45.145Z,39.30
2017-11-13T20:35:08.714Z,39.30
2017-11-13T20:38:32.695Z,39.50
2017-11-13T20:41:56.238Z,39.60
2017-11-13T20:45:20.704Z,39.40
2017-11-13T20:48:44.267Z,39.30
2017-11-13T20:52:07.794Z,39.40
2017-11-13T20:55:31.373Z,39.50
2017-11-13T20:58:55.640Z,39.10
2017-11-13T21:02:19.900Z,39.10
2017-11-13T21:05:44.939Z,39.30
2017-11-13T21:09:09.394Z,39.30
2017-11-13T21:12:32.937Z,39.30
2017-11-13T21:15:56.448Z,39.50
2017-11-13T21:19:19.922Z,39.70
2017-11-13T21:22:44.148Z,40.10
2017-11-13T21:26:07.842Z,40.20
2017-11-13T21:29:31.416Z,40.60
2017-11-13T21:32:55.653Z,41.50
2017-11-13T21:36:19.196Z,41.50
2017-11-13T21:39:42.697Z,41.70
2017-11-13T21:43:06.208Z,42.20
2017-11-13T21:46:31.161Z,42.80
2017-11-13T21:49:54.697Z,42.80
2017-11-13T21:53:18.211Z,43.20
2017-11-13T21:56:41.948Z,43.50
2017-11-13T22:00:05.434Z,43.90
2017-11-13T22:03:28.903Z,44.20
2017-11-13T22:06:52.531Z,44.40
2017-11-13T22:10:16.068Z,44.60
2017-11-13T22:13:39.567Z,44.90
2017-11-13T22:17:03.117Z,45.10
2017-11-13T22:20:26.584Z,45.30
2017-11-13T22:23:50.077Z,45.40
2017-11-13T22:27:13.613Z,45.60
2017-11-13T22:30:37.101Z,45.80
2017-11-13T22:34:00.652Z,46.00
2017-11-13T22:37:24.141Z,46.10
2017-11-13T22:40:47.648Z,46.30
2017-11-13T22:44:11.164Z,46.30
2017-11-13T22:47:34.645Z,46.50
2017-11-13T22:50:58.116Z,46.50
2017-11-13T22:54:21.600Z,46.60
2017-11-13T22:57:45.085Z,46.80
2017-11-13T23:01:08.570Z,46.80
2017-11-13T23:04:32.099Z,47.00
2017-11-13T23:07:55.680Z,46.90
2017-11-13T23:11:19.222Z,47.00
2017-11-13T23:14:43.504Z,47.20
2017-11-13T23:18:07.030Z,47.20
2017-11-13T23:21:30.546Z,47.30
2017-11-13T23:24:54.040Z,47.30
2017-11-13T23:28:17.569Z,47.40
2017-11-13T23:31:41.852Z,47.40
2017-11-13T23:35:05.382Z,47.40
2017-11-13T23:38:28.883Z,47.60
2017-11-13T23:41:52.370Z,47.60
2017-11-13T23:45:15.871Z,47.70
2017-11-13T23:48:40.147Z,47.70
2017-11-13T23:52:05.252Z,47.80
2017-11-13T23:55:29.556Z,47.80
2017-11-13T23:58:53.816Z,47.90
